Airport ID:KN38
Update Time (UTC):14/10/2019 21:44
Wind Speed (Knots):7
Wind Direction (Magnetic):280
Temperature (°C):12
Dew Point (°C):1
Humidity (%):50
Altimeter (inHg):29.99
Density Altitude (Feet):
Visibility (Miles):10+
Clouds (Hundreds of feet):SCT060
Present Weather:
METAR:METAR KN38 142140Z AUTO VRB05G14KT 10SM SCT060 12/01 A2999 RMK AO2

The data displayed is for advisory purposes only and is not to be used for flight planning or operations.

This page is not automatically refreshed. Reload the page to see current data.